MMHO

General Ignacio P. Garcia International Airport

Hermosillo, Mexico
TAF MMHO 250458Z 2506/2606 23005KT P6SM SCT100 FM251800 24010KT P6SM SCT030 FM260200 24005KT P6SM SCT030 SCT100
Issued Valid From Valid To
Sep-25 @ 04:58 UTC
(12 hours ago)
Sep-25 @ 06:00 UTC
(11 hours ago)
Sep-26 @ 06:00 UTC
(in 13 hours)
Sep-25 @ 06:00 to Sep-25 @ 18:00
TAF MMHO 250458Z 2506/2606 23005KT P6SM SCT100
Wind Visibility Clouds
230° at 5 knots Greater than 6 miles
  • Scattered at 10,000' AGL
From Sep-25 @ 18:00 to Sep-26 @ 02:00
FM251800 24010KT P6SM SCT030
Wind Visibility Clouds
240° at 10 knots Greater than 6 miles
  • Scattered at 3,000' AGL
From Sep-26 @ 02:00 to Sep-26 @ 06:00
FM260200 24005KT P6SM SCT030 SCT100
Wind Visibility Clouds
240° at 5 knots Greater than 6 miles
  • Scattered at 3,000' AGL
  • Scattered at 10,000' AGL
TAF MMHO 250458Z 2506/2606 23005KT P6SM SCT100 FM251800 24010KT P6SM SCT030 FM260200 24005KT P6SM SCT030 SCT100
Issued Sep-25 @ 04:58 UTC
(12 hours ago)
Valid From Sep-25 @ 06:00 UTC
(11 hours ago)
Valid To Sep-26 @ 06:00 UTC
(in 13 hours)
Sep-25 @ 06:00 - Sep-25 @ 18:00
Wind Visibility
230° at 5 knots Greater than 6 miles
Clouds
  • Scattered at 10,000' AGL
From Sep-25 @ 18:00 - Sep-26 @ 02:00
Wind Visibility
240° at 10 knots Greater than 6 miles
Clouds
  • Scattered at 3,000' AGL
From Sep-26 @ 02:00 - Sep-26 @ 06:00
Wind Visibility
240° at 5 knots Greater than 6 miles
Clouds
  • Scattered at 3,000' AGL
  • Scattered at 10,000' AGL